Terminal Aerodrome Forecast
Issued by NWS

Home | Current Version | Previous Version | Text Only | Print | Product List | Glossary On
Versions: 1 2 3 4 5 6 7 8 9 10 11 12
449
FTUS42 TJSJ 060530
TAFJPS
TAF
TJPS 060530Z 0606/0706 VRB04KT P6SM VCSH FEW030
     FM061400 15009KT P6SM SCT030 SCT250
     FM062330 06006KT P6SM FEW030
      AMD NOT SKED 0611/0703=

USA.gov is the U.S. government's official web portal to all federal, state and local government web resources and services.